Portada
METAR-TAF:

METAR-TAF

Aeropuertos :

Vance Air Force Base, Oklahoma, Estados Unidos

latitud: 36-20N, longitud: 097-55W, altitud: 398 m

Observación

El informe se hizo hace 10 minutos, a las 01:56 UTC
Viento 4 kt del noreste
Temperatura 22°C
Humedad 83%
Presión 1018 hPa
Visibilidad: 16.1 km
Cielo despejado

METAR: KEND 290156Z AUTO 04004KT 10SM CLR 22/19 A3006 RMK AO2 SLP173 T02230192 $

Hora: 21:06 (02:06 UTC)

Pronóstico

El informe se hizo hace 6 minutos, a las 02:00 UTC
Pronóstico válido del 29 a las 02 UTC al 30 a las 08 UTC
Viento 6 kt con dirección variable
Visibilidad 10 km o más
Escasas nubes a una altura de 3500 ft
Evolucionando progresivamente
del 29 a las 10 UTC al 29 a las 11 UTC
Viento 12 kt del norte-noreste
Visibilidad: 2909 m
Cielo despejado

TAF: KEND 290200Z 2902/3008 VRB06KT 9999 FEW035 QNH3004INS BECMG 2910/2911 02012KT 9999 SKC QNH3008INS TX26/2922Z TN15/2912Z LAST NO AMDS AFT 2902 NEXT 2909

Observaciones y pronósticos meteorológicos de más de 4000 aeropuertos (mensajes METAR y TAF).

Los puntos amarillos y rojos representan las estaciones disponibles.

Ponga el ratón en el punto deseado para ver el nombre de la estación.

Haga clic para ver las observaciones y los pronósticos meteorológicos.

Para cambiar el mapa : haga clic en los botones verdes con una cruz de color negro para hacer un zoom, en el botón verde con un guión para alejar o en las flechas verdes para mapas adyacentes.


METAR-TAF: